Time;durP1;ratioP1;P1;durP2;ratioP2;P2;SDS_P1;SDS_P2;PMS_P1;PMS_P2;Temp;Humidity;BMP_temperature;BMP_pressure;BME280_temperature;BME280_humidity;BME280_pressure;Samples;Min_cycle;Max_cycle;Signal;HPM_P1;HPM_P2
2022/04/29 00:00:18;;;;;;;14.00;8.30;;;;;;;10.79;50.79;101492.73;106104;1298;24164;-82
2022/04/29 00:02:47;;;;;;;10.70;7.90;;;;;;;10.80;50.80;101492.73;105558;1299;22777;-78
2022/04/29 00:05:16;;;;;;;11.50;8.00;;;;;;;10.80;50.95;101495.73;105208;1302;22597;-80
2022/04/29 00:07:48;;;;;;;14.40;8.20;;;;;;;10.81;51.00;101494.34;104602;1302;23076;-77
2022/04/29 00:10:15;;;;;;;14.10;8.00;;;;;;;10.82;50.96;101498.92;104111;1302;22762;-77
2022/04/29 00:12:46;;;;;;;11.20;7.90;;;;;;;10.78;50.92;101495.02;105111;1302;22659;-86
2022/04/29 00:15:15;;;;;;;12.30;7.60;;;;;;;10.73;50.94;101498.67;106917;1302;22950;-87
2022/04/29 00:17:43;;;;;;;12.00;7.30;;;;;;;10.71;51.23;101494.27;107034;1301;22265;-87
2022/04/29 00:20:10;;;;;;;12.70;7.30;;;;;;;10.71;51.09;101493.39;107217;1299;22629;-87
2022/04/29 00:22:38;;;;;;;10.20;7.50;;;;;;;10.70;51.24;101496.38;107284;1293;22641;-86
2022/04/29 00:25:08;;;;;;;11.00;7.10;;;;;;;10.68;51.25;101493.54;107556;1293;22709;-87
2022/04/29 00:27:35;;;;;;;9.40;7.50;;;;;;;10.69;51.34;101494.77;107444;1293;23021;-85
2022/04/29 00:30:05;;;;;;;10.50;6.90;;;;;;;10.68;51.20;101492.82;106767;1293;22824;-84
2022/04/29 00:32:31;;;;;;;11.10;7.30;;;;;;;10.65;51.41;101490.86;106255;1296;22668;-81
2022/04/29 00:34:58;;;;;;;10.20;6.80;;;;;;;10.62;51.32;101490.50;104676;1294;24063;-83
2022/04/29 00:37:25;;;;;;;9.30;6.60;;;;;;;10.51;51.56;101487.59;104036;1299;24043;-84
2022/04/29 00:39:51;;;;;;;11.30;6.80;;;;;;;10.43;51.77;101486.26;104758;1299;22576;-83
2022/04/29 00:42:24;;;;;;;9.50;7.20;;;;;;;10.35;51.96;101485.45;104598;1306;22607;-84
2022/04/29 00:44:51;;;;;;;9.50;7.00;;;;;;;10.32;52.22;101480.32;103408;1307;22626;-82
2022/04/29 00:47:21;;;;;;;11.20;7.30;;;;;;;10.34;52.36;101483.88;103093;1307;22662;-82
2022/04/29 00:49:50;;;;;;;14.60;8.00;;;;;;;10.36;52.43;101482.13;103202;1307;22596;-81
2022/04/29 00:52:19;;;;;;;13.00;8.10;;;;;;;10.37;52.41;101480.55;103234;1307;22564;-84
2022/04/29 00:54:57;;;;;;;11.60;7.50;;;;;;;10.32;52.48;101477.85;103453;1305;22621;-84
2022/04/29 00:57:40;;;;;;;13.30;8.00;;;;;;;10.29;52.65;101474.31;103752;1299;24132;-85
2022/04/29 01:00:09;;;;;;;11.60;7.30;;;;;;;10.27;52.73;101473.24;103796;1296;23257;-85
2022/04/29 01:02:41;;;;;;;11.00;7.90;;;;;;;10.23;52.64;101469.50;104131;1296;25423;-82
2022/04/29 01:05:15;;;;;;;13.90;8.10;;;;;;;10.19;52.83;101469.29;104630;1295;24298;-84
2022/04/29 01:07:44;;;;;;;7.80;6.70;;;;;;;10.18;53.05;101470.67;104751;1294;24453;-85
2022/04/29 01:10:13;;;;;;;11.40;7.70;;;;;;;10.13;52.98;101468.35;105121;1294;22516;-87
2022/04/29 01:12:43;;;;;;;12.30;7.90;;;;;;;10.05;53.19;101470.20;105470;1293;22903;-84
2022/04/29 01:15:13;;;;;;;14.50;8.30;;;;;;;10.00;53.37;101463.83;106053;1293;23979;-88
2022/04/29 01:17:43;;;;;;;12.30;8.00;;;;;;;9.98;53.50;101461.86;105676;1293;23873;-86
2022/04/29 01:20:16;;;;;;;10.40;7.70;;;;;;;9.97;53.67;101459.20;105550;1293;22528;-90
2022/04/29 01:22:44;;;;;;;13.80;7.70;;;;;;;9.97;53.76;101459.55;105957;1293;24285;-88
2022/04/29 01:25:12;;;;;;;11.50;8.00;;;;;;;9.94;53.71;101459.17;105143;1294;22853;-83
2022/04/29 01:27:44;;;;;;;13.50;7.70;;;;;;;9.90;53.95;101450.88;104984;1296;23053;-86
2022/04/29 01:30:13;;;;;;;20.30;9.20;;;;;;;9.91;54.01;101450.54;104857;1296;24214;-82
2022/04/29 01:32:44;;;;;;;11.60;7.40;;;;;;;9.88;54.02;101449.27;103902;1296;22646;-84
2022/04/29 01:35:13;;;;;;;10.40;7.40;;;;;;;9.84;54.19;101447.64;104287;1296;22785;-84
2022/04/29 01:37:42;;;;;;;16.80;6.60;;;;;;;9.81;54.29;101441.27;103958;1296;25342;-84
2022/04/29 01:40:09;;;;;;;14.30;8.30;;;;;;;9.79;54.22;101448.11;104050;1294;22612;-83
2022/04/29 01:42:38;;;;;;;14.10;8.20;;;;;;;9.76;54.47;101450.02;104222;1293;25245;-82
2022/04/29 01:45:05;;;;;;;12.60;7.70;;;;;;;9.75;54.62;101452.81;104063;1296;25672;-83
2022/04/29 01:47:43;;;;;;;19.60;7.10;;;;;;;9.70;54.75;101445.90;103935;1293;25289;-82
2022/04/29 01:50:23;;;;;;;13.90;7.30;;;;;;;9.68;54.74;101451.33;103894;1294;25410;-81
2022/04/29 01:52:50;;;;;;;15.40;7.40;;;;;;;9.56;54.92;101446.09;103799;1293;22616;-80
2022/04/29 01:55:17;;;;;;;13.80;7.80;;;;;;;9.54;55.07;101448.16;103911;1296;22648;-82
2022/04/29 01:57:48;;;;;;;11.10;7.60;;;;;;;9.52;55.21;101446.21;104039;1296;22901;-80
2022/04/29 02:00:15;;;;;;;10.00;7.00;;;;;;;9.49;55.24;101447.77;104082;1296;22584;-84
2022/04/29 02:02:41;;;;;;;10.70;7.00;;;;;;;9.40;55.47;101449.05;104121;1296;22869;-80
2022/04/29 02:05:11;;;;;;;11.80;7.60;;;;;;;9.36;55.66;101447.95;104555;1293;25398;-82
2022/04/29 02:07:37;;;;;;;14.20;7.20;;;;;;;9.34;55.81;101444.57;104597;1296;22789;-81
2022/04/29 02:10:04;;;;;;;14.90;7.80;;;;;;;9.34;55.89;101444.93;104263;1294;22607;-82
2022/04/29 02:12:31;;;;;;;10.70;7.00;;;;;;;9.35;55.98;101445.83;104371;1293;25399;-82
2022/04/29 02:14:58;;;;;;;9.60;7.60;;;;;;;9.36;56.16;101442.86;104487;1293;25521;-80
2022/04/29 02:17:31;;;;;;;11.40;8.20;;;;;;;9.39;56.16;101444.30;103596;1299;25417;-81
2022/04/29 02:19:59;;;;;;;12.50;8.10;;;;;;;9.42;56.18;101443.80;103723;1299;25400;-81
2022/04/29 02:22:25;;;;;;;15.00;7.70;;;;;;;9.41;56.20;101436.95;104008;1300;25367;-81
2022/04/29 02:24:51;;;;;;;10.60;7.40;;;;;;;9.43;56.24;101440.48;103770;1299;22767;-83
2022/04/29 02:27:18;;;;;;;11.30;8.00;;;;;;;9.41;56.24;101438.18;103975;1299;22727;-86
2022/04/29 02:29:44;;;;;;;10.60;7.10;;;;;;;9.38;56.28;101436.89;104045;1299;25369;-86
2022/04/29 02:32:15;;;;;;;9.80;7.20;;;;;;;9.40;56.29;101433.77;103857;1300;22551;-80
2022/04/29 02:34:42;;;;;;;9.70;7.20;;;;;;;9.42;56.36;101435.02;103447;1299;22725;-80
2022/04/29 02:37:09;;;;;;;10.50;7.00;;;;;;;9.41;56.46;101432.20;103955;1296;22652;-78
2022/04/29 02:39:37;;;;;;;11.50;7.50;;;;;;;9.43;56.52;101428.34;103975;1298;22586;-79
2022/04/29 02:42:06;;;;;;;13.80;7.80;;;;;;;9.42;56.45;101425.52;104158;1296;23052;-78
2022/04/29 02:44:38;;;;;;;9.70;7.30;;;;;;;9.40;56.59;101429.04;104384;1297;22669;-76
2022/04/29 02:47:08;;;;;;;8.60;6.40;;;;;;;9.38;56.58;101428.66;103951;1297;22628;-76
2022/04/29 02:49:44;;;;;;;10.10;7.50;;;;;;;9.36;56.65;101428.96;103884;1294;24286;-77
2022/04/29 02:52:13;;;;;;;10.20;6.90;;;;;;;9.36;56.72;101425.45;104070;1294;22650;-75
2022/04/29 02:54:40;;;;;;;9.70;6.90;;;;;;;9.38;56.73;101421.41;103842;1296;24837;-77
2022/04/29 02:57:21;;;;;;;11.00;6.80;;;;;;;9.39;56.73;101418.29;104047;1298;22597;-74
2022/04/29 02:59:47;;;;;;;9.80;6.70;;;;;;;9.37;56.83;101417.55;103906;1297;22621;-79
2022/04/29 03:02:13;;;;;;;13.50;7.30;;;;;;;9.36;57.04;101417.54;103765;1296;22738;-79
2022/04/29 03:08:53;;;;;;;10.10;6.80;;;;;;;9.46;57.08;101420.64;104181;1294;23608;-77
2022/04/29 03:11:19;;;;;;;9.60;7.20;;;;;;;9.47;56.97;101416.45;103997;1300;23075;-79
2022/04/29 03:13:46;;;;;;;14.70;7.20;;;;;;;9.47;56.85;101420.85;104143;1296;22596;-79
2022/04/29 03:16:14;;;;;;;11.40;6.10;;;;;;;9.50;57.15;101417.89;104216;1293;22607;-80
2022/04/29 03:18:42;;;;;;;12.00;6.70;;;;;;;9.50;57.04;101416.65;104037;1294;22592;-79
2022/04/29 03:21:08;;;;;;;8.50;5.90;;;;;;;9.50;56.97;101421.92;103953;1296;22603;-80
2022/04/29 03:23:34;;;;;;;12.00;6.50;;;;;;;9.52;57.00;101423.54;104194;1296;22586;-81
2022/04/29 03:26:04;;;;;;;9.90;6.00;;;;;;;9.56;56.99;101426.04;104157;1294;22593;-80
2022/04/29 03:28:32;;;;;;;12.20;6.20;;;;;;;9.59;56.81;101419.75;104133;1294;22615;-78
2022/04/29 03:30:59;;;;;;;10.60;6.50;;;;;;;9.58;56.74;101418.67;103988;1294;24384;-79
2022/04/29 03:33:37;;;;;;;9.50;6.80;;;;;;;9.56;56.79;101415.65;104772;1296;22744;-78
2022/04/29 03:36:03;;;;;;;8.00;5.40;;;;;;;9.55;56.70;101415.82;103793;1296;25286;-78
2022/04/29 03:38:36;;;;;;;12.00;6.90;;;;;;;9.49;56.81;101415.58;104009;1294;22588;-75
2022/04/29 03:41:04;;;;;;;12.50;7.50;;;;;;;9.48;56.88;101419.96;103898;1297;22575;-76
2022/04/29 03:43:31;;;;;;;8.10;6.50;;;;;;;9.43;56.87;101424.67;103825;1296;22593;-75
2022/04/29 03:45:59;;;;;;;12.00;8.10;;;;;;;9.41;57.05;101427.45;103902;1296;22636;-81
2022/04/29 03:51:48;;;;;;;12.10;9.10;;;;;;;9.35;57.17;101432.45;103998;1297;22595;-82
2022/04/29 03:54:15;;;;;;;11.30;8.30;;;;;;;9.36;57.17;101436.00;103906;1296;24013;-83
2022/04/29 03:56:48;;;;;;;13.10;8.40;;;;;;;9.33;57.16;101434.38;104048;1296;22566;-81
2022/04/29 03:59:14;;;;;;;11.10;8.20;;;;;;;9.27;57.21;101436.59;104222;1294;22607;-80
2022/04/29 04:01:42;;;;;;;11.00;8.40;;;;;;;9.20;57.39;101438.61;104225;1296;22571;-85
2022/04/29 04:04:09;;;;;;;14.40;8.60;;;;;;;9.22;57.61;101437.57;104136;1296;22757;-83
2022/04/29 04:06:50;;;;;;;11.80;7.80;;;;;;;9.27;57.55;101433.23;104098;1294;22592;-82
2022/04/29 04:09:32;;;;;;;;;;;;;;;9.33;57.69;101433.14;104199;1297;22564;-82
2022/04/29 04:12:03;;;;;;;16.30;8.50;;;;;;;9.33;57.46;101431.04;104291;1294;22596;-83
2022/04/29 04:14:59;;;;;;;12.40;9.50;;;;;;;9.31;57.45;101430.65;104185;1297;25002;-82
2022/04/29 04:17:25;;;;;;;12.30;9.20;;;;;;;9.33;57.54;101430.85;104190;1293;23007;-79
2022/04/29 04:19:55;;;;;;;12.50;9.00;;;;;;;9.34;57.50;101431.74;104171;1294;25563;-80
2022/04/29 04:22:37;;;;;;;15.40;8.90;;;;;;;9.37;57.59;101434.77;105024;1283;22745;31
2022/04/29 04:29:02;;;;;;;10.20;8.20;;;;;;;9.50;57.41;101427.20;107752;1281;22914;31
2022/04/29 04:35:34;;;;;;;12.10;8.20;;;;;;;9.53;57.10;101432.52;107685;1282;22518;31
2022/04/29 04:38:09;;;;;;;12.80;8.20;;;;;;;9.52;57.27;101432.50;106981;1286;22623;-92
2022/04/29 04:43:51;;;;;;;11.60;8.50;;;;;;;9.64;57.14;101435.98;105204;1282;24172;-80
2022/04/29 04:46:18;;;;;;;11.30;8.30;;;;;;;9.66;57.02;101436.17;104748;1294;25286;-83
2022/04/29 04:49:21;;;;;;;13.30;7.80;;;;;;;9.73;57.15;101435.20;105771;1299;22610;-88
2022/04/29 04:52:03;;;;;;;;;;;;;;;9.80;57.04;101438.63;104133;1302;23526;-82
2022/04/29 04:54:29;;;;;;;10.00;6.90;;;;;;;9.82;56.95;101437.60;103503;1303;25599;-80
2022/04/29 04:56:56;;;;;;;9.50;6.10;;;;;;;9.73;56.76;101439.60;103694;1302;22606;-78
2022/04/29 04:59:23;;;;;;;9.70;7.10;;;;;;;9.68;56.81;101442.19;104193;1302;22603;-83
2022/04/29 05:01:55;;;;;;;10.80;7.20;;;;;;;9.74;57.00;101446.12;103745;1302;22585;-79
2022/04/29 05:04:40;;;;;;;9.40;7.00;;;;;;;9.80;56.89;101447.41;103702;1303;23995;-83
2022/04/29 05:07:26;;;;;;;14.10;8.50;;;;;;;9.78;56.91;101445.64;103680;1303;266053;-88
2022/04/29 05:09:53;;;;;;;16.30;8.40;;;;;;;9.72;56.81;101440.11;104240;1299;26589;-81
2022/04/29 05:12:19;;;;;;;10.80;7.00;;;;;;;9.73;57.04;101446.45;104437;1299;23707;-81
2022/04/29 05:15:21;;;;;;;11.70;8.40;;;;;;;9.72;57.11;101448.03;105011;1299;25312;-80
2022/04/29 05:17:47;;;;;;;11.80;9.40;;;;;;;9.69;57.16;101446.23;105165;1299;25314;-82
2022/04/29 05:20:49;;;;;;;9.90;8.20;;;;;;;9.77;57.37;101448.61;104615;1299;22632;-77
2022/04/29 05:23:16;;;;;;;14.60;10.20;;;;;;;9.79;57.26;101448.98;105475;1299;22637;-82
2022/04/29 05:26:00;;;;;;;12.10;8.50;;;;;;;9.74;57.29;101443.12;105388;1293;22741;-82
2022/04/29 05:28:53;;;;;;;16.10;9.00;;;;;;;9.73;57.39;101444.70;105138;1293;25260;-81
2022/04/29 05:31:48;;;;;;;13.90;9.10;;;;;;;9.75;57.44;101447.54;104277;1293;22637;-80
2022/04/29 05:34:34;;;;;;;12.10;9.00;;;;;;;9.76;57.57;101451.06;104015;1293;22706;-78
2022/04/29 05:37:20;;;;;;;16.30;9.50;;;;;;;9.78;57.77;101452.32;104067;1293;22595;-83
2022/04/29 05:42:58;;;;;;;12.90;8.40;;;;;;;9.77;57.86;101455.66;104071;1293;25482;-83
2022/04/29 05:45:24;;;;;;;10.80;8.70;;;;;;;9.76;57.88;101452.48;103997;1293;22608;-83
2022/04/29 05:47:51;;;;;;;11.90;9.70;;;;;;;9.78;57.80;101453.56;103974;1293;23997;-85
2022/04/29 05:50:18;;;;;;;14.70;10.10;;;;;;;9.81;57.84;101451.48;104222;1293;23097;-83
2022/04/29 05:52:44;;;;;;;18.00;10.70;;;;;;;9.87;57.97;101453.30;104244;1294;22768;-82
2022/04/29 05:55:11;;;;;;;14.20;10.30;;;;;;;9.95;57.97;101455.31;104011;1293;22582;-82
2022/04/29 05:57:58;;;;;;;27.30;11.10;;;;;;;10.02;57.84;101459.80;103942;1296;24615;-82
2022/04/29 06:00:25;;;;;;;19.40;10.20;;;;;;;10.14;57.77;101464.84;104001;1294;22576;-81
2022/04/29 06:02:59;;;;;;;17.20;10.60;;;;;;;10.24;57.56;101460.36;103941;1294;24857;-82
2022/04/29 06:05:27;;;;;;;15.50;10.10;;;;;;;10.36;57.53;101465.58;103936;1293;22735;-82
2022/04/29 06:07:54;;;;;;;15.90;10.30;;;;;;;10.50;57.54;101469.60;104352;1293;22752;-83
2022/04/29 06:10:41;;;;;;;12.40;9.70;;;;;;;10.66;57.51;101471.48;104044;1297;22778;-83
2022/04/29 06:13:08;;;;;;;16.20;10.30;;;;;;;10.78;57.35;101470.70;104292;1297;22583;-83
2022/04/29 06:15:47;;;;;;;17.00;10.40;;;;;;;10.93;57.33;101471.86;103832;1297;25277;-84
2022/04/29 06:18:46;;;;;;;16.40;9.50;;;;;;;11.07;56.96;101479.35;103827;1297;24329;-86
2022/04/29 06:21:27;;;;;;;14.10;9.70;;;;;;;11.15;56.44;101479.59;104013;1297;25385;-82
2022/04/29 06:24:14;;;;;;;;;;;;;;;11.21;56.36;101483.49;104107;1297;25653;-84
2022/04/29 06:26:40;;;;;;;18.50;11.50;;;;;;;11.23;56.39;101481.92;104310;1297;23088;-82
2022/04/29 06:29:08;;;;;;;22.40;10.70;;;;;;;11.23;56.67;101483.15;104130;1297;26567;-81
2022/04/29 06:31:35;;;;;;;18.00;11.30;;;;;;;11.30;56.81;101484.60;104044;1297;24205;-84
2022/04/29 06:34:24;;;;;;;17.00;10.80;;;;;;;11.40;56.94;101486.77;104055;1293;25300;-83
2022/04/29 06:36:51;;;;;;;23.70;12.60;;;;;;;11.45;56.75;101487.51;104258;1293;22594;-83
2022/04/29 06:39:18;;;;;;;19.30;12.50;;;;;;;11.51;56.72;101486.83;104275;1296;25746;-84
2022/04/29 06:42:05;;;;;;;22.40;12.90;;;;;;;11.59;56.81;101489.52;104472;1293;24293;-83
2022/04/29 06:44:51;;;;;;;22.20;12.90;;;;;;;11.71;56.73;101485.67;104262;1293;22655;-83
2022/04/29 06:47:36;;;;;;;28.10;14.20;;;;;;;11.78;56.65;101481.64;104333;1293;24266;-82
2022/04/29 06:50:21;;;;;;;26.70;13.40;;;;;;;11.87;56.26;101486.61;104414;1293;22609;-84
2022/04/29 06:53:09;;;;;;;35.60;13.50;;;;;;;11.94;56.40;101486.63;104575;1293;25399;-82
2022/04/29 06:55:37;;;;;;;30.00;13.20;;;;;;;12.02;56.13;101487.54;104370;1293;22671;-84
2022/04/29 06:58:06;;;;;;;23.00;12.50;;;;;;;12.09;55.92;101488.09;103970;1294;24579;-84
2022/04/29 07:00:34;;;;;;;25.70;12.90;;;;;;;12.20;55.89;101490.08;104257;1294;22592;-84
2022/04/29 07:03:03;;;;;;;22.40;12.50;;;;;;;12.31;55.80;101486.03;104368;1296;24912;-84
2022/04/29 07:05:32;;;;;;;18.80;11.50;;;;;;;12.40;55.30;101486.05;104256;1296;25308;-85
2022/04/29 07:08:03;;;;;;;19.60;12.30;;;;;;;12.44;54.99;101486.56;104254;1293;25031;-83
2022/04/29 07:10:47;;;;;;;21.00;12.00;;;;;;;12.52;55.04;101484.98;104148;1294;22920;-84
2022/04/29 07:13:33;;;;;;;21.30;12.00;;;;;;;12.62;54.72;101486.92;104210;1293;24278;-83
2022/04/29 07:15:59;;;;;;;16.90;12.30;;;;;;;12.75;54.87;101484.80;104232;1293;25427;-82
2022/04/29 07:18:51;;;;;;;22.00;11.90;;;;;;;12.88;54.45;101481.09;104132;1293;22748;-83
2022/04/29 07:21:18;;;;;;;19.00;11.40;;;;;;;12.99;54.12;101483.17;104171;1296;22724;-84
2022/04/29 07:23:44;;;;;;;19.30;10.80;;;;;;;13.06;53.68;101484.24;104114;1297;22701;-82
2022/04/29 07:26:11;;;;;;;18.20;11.50;;;;;;;13.13;53.40;101486.34;104248;1294;22601;-83
2022/04/29 07:28:37;;;;;;;16.90;11.80;;;;;;;13.19;53.46;101487.22;104159;1294;26682;-84
2022/04/29 07:31:04;;;;;;;19.60;11.90;;;;;;;13.25;53.32;101486.66;104423;1294;25574;-84
2022/04/29 07:33:49;;;;;;;16.50;10.50;;;;;;;13.32;52.74;101486.11;104410;1293;22626;-84
2022/04/29 07:42:11;;;;;;;20.00;9.90;;;;;;;13.32;52.25;101478.52;103954;1297;24383;-83
2022/04/29 07:44:37;;;;;;;16.40;10.90;;;;;;;13.32;52.38;101478.86;104294;1294;25471;-84
2022/04/29 07:47:07;;;;;;;22.40;11.70;;;;;;;13.30;52.33;101474.45;104116;1293;22567;-82
2022/04/29 07:49:47;;;;;;;14.80;10.60;;;;;;;13.29;52.42;101471.80;103979;1296;24183;-83
2022/04/29 07:52:17;;;;;;;16.70;9.70;;;;;;;13.33;52.20;101473.38;104424;1293;23069;-84
2022/04/29 07:54:44;;;;;;;15.60;11.20;;;;;;;13.38;52.15;101470.17;104236;1296;25398;-83
2022/04/29 07:57:10;;;;;;;16.60;11.00;;;;;;;13.44;51.96;101473.52;104002;1299;22567;-83
2022/04/29 07:59:37;;;;;;;24.40;11.70;;;;;;;13.47;51.82;101469.97;104203;1293;25411;-84
2022/04/29 08:02:27;;;;;;;21.50;11.80;;;;;;;13.53;51.81;101465.38;103873;1297;22596;-79
2022/04/29 08:04:55;;;;;;;17.90;12.60;;;;;;;13.63;52.11;101462.67;104012;1297;22585;-83
2022/04/29 08:07:22;;;;;;;19.60;13.10;;;;;;;13.72;52.28;101458.74;104076;1297;22595;-83
2022/04/29 08:09:49;;;;;;;17.10;11.80;;;;;;;13.81;52.40;101453.21;103892;1297;24307;-83
2022/04/29 08:12:16;;;;;;;14.50;11.00;;;;;;;13.97;52.48;101457.02;104133;1297;22611;-84
2022/04/29 08:15:01;;;;;;;16.80;11.20;;;;;;;14.16;52.43;101459.02;104125;1296;24202;-83
2022/04/29 08:17:45;;;;;;;17.50;11.20;;;;;;;14.30;51.81;101454.12;103968;1296;23173;-83
2022/04/29 08:20:12;;;;;;;15.00;10.80;;;;;;;14.36;50.93;101456.04;103968;1299;25357;-86
2022/04/29 08:22:42;;;;;;;17.80;10.50;;;;;;;14.42;51.06;101453.14;104320;1294;22513;-84
2022/04/29 08:25:10;;;;;;;17.90;11.30;;;;;;;14.55;50.73;101444.72;105165;1293;22597;-83
2022/04/29 08:27:37;;;;;;;22.20;10.80;;;;;;;14.69;50.40;101442.63;105962;1293;25972;-83
2022/04/29 08:30:06;;;;;;;16.30;11.10;;;;;;;14.80;50.12;101441.48;106634;1294;22597;-83
2022/04/29 08:32:37;;;;;;;20.80;10.90;;;;;;;14.93;50.05;101442.08;106961;1293;22569;-82
2022/04/29 08:35:06;;;;;;;20.20;11.80;;;;;;;15.10;49.94;101439.05;106835;1293;22638;-84
2022/04/29 08:37:32;;;;;;;15.70;10.70;;;;;;;15.25;49.57;101440.50;106786;1294;22571;-83
2022/04/29 08:40:00;;;;;;;19.30;10.80;;;;;;;15.40;49.41;101440.14;105701;1293;25246;-83
2022/04/29 08:42:28;;;;;;;15.00;10.40;;;;;;;15.53;49.09;101437.12;104602;1296;25241;-84
2022/04/29 08:44:55;;;;;;;16.30;10.80;;;;;;;15.62;48.06;101433.45;105227;1294;23284;-82
2022/04/29 08:47:46;;;;;;;22.70;10.40;;;;;;;15.68;47.67;101435.14;104825;1297;22591;-83
2022/04/29 08:50:19;;;;;;;18.80;10.20;;;;;;;15.76;47.90;101433.79;105000;1299;25486;-85
2022/04/29 08:52:49;;;;;;;20.30;9.90;;;;;;;15.90;47.91;101430.39;105243;1299;24300;-85
2022/04/29 09:00:48;;;;;;;17.20;10.00;;;;;;;16.25;46.61;101417.46;104121;1299;22605;-83
2022/04/29 09:03:17;;;;;;;18.40;11.10;;;;;;;16.47;46.26;101422.08;104281;1299;22582;-81
2022/04/29 09:05:45;;;;;;;13.60;10.20;;;;;;;16.69;45.73;101415.27;104356;1300;22816;-81
2022/04/29 09:08:14;;;;;;;14.60;10.50;;;;;;;16.96;45.25;101412.63;104428;1296;25376;-84
2022/04/29 09:11:11;;;;;;;15.20;10.00;;;;;;;17.26;44.96;101411.54;104391;1298;22579;-82
2022/04/29 09:13:39;;;;;;;17.50;9.40;;;;;;;17.63;44.62;101405.60;103982;1299;22620;-84
2022/04/29 09:16:12;;;;;;;13.80;10.30;;;;;;;17.82;44.04;101403.40;103909;1300;23928;-83
2022/04/29 09:18:50;;;;;;;15.20;9.30;;;;;;;17.94;43.72;101400.08;104231;1299;24203;-82
2022/04/29 09:21:19;;;;;;;19.00;9.60;;;;;;;17.92;42.85;101404.58;103741;1303;24017;-83
2022/04/29 09:23:57;;;;;;;16.70;10.20;;;;;;;17.71;41.97;101404.86;103562;1305;24351;-83
2022/04/29 09:27:03;;;;;;;16.60;10.10;;;;;;;17.36;42.11;101404.94;103527;1304;25501;-82
2022/04/29 09:29:48;;;;;;;19.10;10.80;;;;;;;17.13;42.25;101406.64;103515;1303;22626;-84
2022/04/29 09:32:48;;;;;;;13.80;10.30;;;;;;;16.85;42.30;101402.02;103898;1300;23109;-81
2022/04/29 09:35:35;;;;;;;17.00;11.30;;;;;;;16.56;42.34;101408.04;103834;1300;23920;-81
2022/04/29 09:40:56;;;;;;;16.60;10.10;;;;;;;15.89;42.69;101404.48;103786;1300;25582;-81
2022/04/29 09:43:42;;;;;;;19.40;11.30;;;;;;;15.77;43.03;101404.12;103896;1299;22591;-83
2022/04/29 09:46:14;;;;;;;19.10;9.80;;;;;;;15.58;42.95;101396.75;103890;1299;22588;-83
2022/04/29 09:48:51;;;;;;;14.10;8.70;;;;;;;15.51;43.19;101403.96;103992;1299;24452;-81
2022/04/29 09:51:44;;;;;;;8.60;6.60;;;;;;;15.47;42.45;101408.98;103977;1299;22576;-83
2022/04/29 09:54:17;;;;;;;17.50;11.20;;;;;;;15.31;42.23;101410.08;103920;1299;25382;-81
2022/04/29 09:57:03;;;;;;;20.40;10.40;;;;;;;15.12;43.13;101413.66;103850;1299;23961;-83
2022/04/29 09:59:44;;;;;;;22.60;11.20;;;;;;;15.04;43.68;101409.52;104013;1293;25369;-82
2022/04/29 10:02:13;;;;;;;24.40;10.70;;;;;;;15.02;44.12;101412.71;104168;1299;25921;-83
2022/04/29 10:04:42;;;;;;;21.60;10.40;;;;;;;15.00;44.49;101410.08;104372;1294;25685;-82
2022/04/29 10:07:15;;;;;;;16.80;9.30;;;;;;;15.02;44.86;101406.86;104265;1293;22629;-81
2022/04/29 10:09:47;;;;;;;17.10;8.60;;;;;;;15.09;45.05;101408.20;104856;1293;23241;-81
2022/04/29 10:12:16;;;;;;;14.10;8.00;;;;;;;15.19;44.83;101406.67;105149;1294;22619;-81
2022/04/29 10:14:52;;;;;;;11.30;8.00;;;;;;;15.31;44.65;101402.96;104149;1294;25300;-82
2022/04/29 10:23:06;;;;;;;11.70;8.00;;;;;;;15.81;44.28;101393.75;104373;1293;25411;-84
2022/04/29 10:25:34;;;;;;;14.40;8.00;;;;;;;16.02;43.39;101389.73;104461;1293;22607;-83
2022/04/29 10:28:02;;;;;;;11.60;8.50;;;;;;;16.29;43.02;101385.23;104227;1293;25465;-83
2022/04/29 10:30:36;;;;;;;9.50;7.40;;;;;;;16.79;42.53;101380.60;104414;1294;26568;-84
2022/04/29 10:33:21;;;;;;;9.70;7.30;;;;;;;17.30;42.16;101374.61;104408;1293;22593;-82
2022/04/29 10:35:56;;;;;;;11.00;7.60;;;;;;;17.56;41.48;101368.16;104126;1298;22518;-83
2022/04/29 10:38:40;;;;;;;10.90;7.30;;;;;;;17.65;40.91;101371.36;104412;1297;22612;-85
2022/04/29 10:41:24;;;;;;;10.30;6.90;;;;;;;17.64;40.50;101368.72;104153;1296;25347;-80
2022/04/29 10:43:51;;;;;;;10.70;7.70;;;;;;;17.62;39.76;101374.63;104176;1297;22590;-81
2022/04/29 10:46:17;;;;;;;9.60;7.50;;;;;;;17.57;39.43;101368.68;104312;1293;22721;-82
2022/04/29 10:49:29;;;;;;;8.40;6.80;;;;;;;17.56;39.27;101373.14;104123;1294;25321;-84
2022/04/29 10:52:29;;;;;;;11.70;7.50;;;;;;;17.41;38.22;101364.58;104436;1295;24911;-83
2022/04/29 10:55:06;;;;;;;9.20;7.30;;;;;;;17.28;37.94;101369.86;104283;1294;22537;-81
2022/04/29 10:57:39;;;;;;;10.80;7.10;;;;;;;17.15;38.03;101367.81;104241;1293;23121;-84
2022/04/29 11:00:13;;;;;;;11.00;7.50;;;;;;;17.05;38.48;101370.47;104287;1294;22560;-85
2022/04/29 11:02:44;;;;;;;9.40;6.80;;;;;;;17.06;38.51;101371.16;104194;1297;22612;-82
2022/04/29 11:05:38;;;;;;;9.90;6.80;;;;;;;16.92;37.92;101367.17;104173;1293;25448;-82
2022/04/29 11:08:09;;;;;;;10.60;6.70;;;;;;;16.76;38.34;101369.97;104134;1293;22719;-84
2022/04/29 11:10:57;;;;;;;7.70;6.00;;;;;;;16.68;37.75;101366.75;104297;1293;22639;-83
2022/04/29 11:13:26;;;;;;;7.60;6.40;;;;;;;16.58;38.27;101361.08;103736;1299;25388;-83
2022/04/29 11:16:16;;;;;;;9.70;6.60;;;;;;;16.56;38.24;101360.20;103790;1299;22759;-82
2022/04/29 11:19:19;;;;;;;9.20;7.20;;;;;;;16.61;38.67;101359.07;103731;1299;22560;-83
2022/04/29 11:24:47;;;;;;;13.00;8.00;;;;;;;17.22;37.41;101355.73;104114;1299;22554;-83
2022/04/29 11:27:31;;;;;;;14.80;7.30;;;;;;;17.56;36.99;101349.64;103912;1299;25427;-83
2022/04/29 11:30:01;;;;;;;12.80;6.40;;;;;;;17.90;36.24;101342.45;104051;1299;22593;-85
2022/04/29 11:32:40;;;;;;;9.90;6.80;;;;;;;18.38;36.21;101341.79;105261;1293;22635;-83
2022/04/29 11:35:07;;;;;;;8.00;5.90;;;;;;;18.83;35.66;101340.75;105416;1294;25564;-84
2022/04/29 11:37:36;;;;;;;8.90;5.90;;;;;;;19.25;35.24;101334.71;106653;1293;22647;-84
2022/04/29 11:40:07;;;;;;;8.80;5.90;;;;;;;19.59;34.65;101333.84;107120;1293;22561;-83
2022/04/29 11:42:34;;;;;;;8.50;5.90;;;;;;;19.85;33.96;101328.19;106994;1293;22604;-83
2022/04/29 11:45:08;;;;;;;7.50;6.00;;;;;;;19.80;33.63;101330.52;107098;1293;22595;-82
2022/04/29 11:47:36;;;;;;;9.40;6.10;;;;;;;19.82;33.77;101327.77;106961;1293;22659;-83
2022/04/29 11:50:05;;;;;;;8.30;5.60;;;;;;;19.86;33.47;101323.70;106141;1294;22599;-82
2022/04/29 11:52:33;;;;;;;11.00;6.00;;;;;;;19.66;33.19;101318.30;104984;1293;22619;-83
2022/04/29 11:55:06;;;;;;;8.10;5.10;;;;;;;19.43;32.59;101325.42;104542;1293;22761;-82
2022/04/29 11:57:43;;;;;;;6.50;4.00;;;;;;;19.06;31.31;101324.38;104484;1296;25299;-82
2022/04/29 12:00:21;;;;;;;4.80;3.50;;;;;;;18.57;31.82;101323.08;103981;1296;22576;-83
2022/04/29 12:02:47;;;;;;;5.00;3.70;;;;;;;18.25;31.99;101319.84;104130;1297;22601;-82
2022/04/29 12:05:15;;;;;;;5.30;3.70;;;;;;;17.99;32.33;101318.16;103926;1299;22560;-81
2022/04/29 12:07:45;;;;;;;6.10;4.50;;;;;;;17.84;32.34;101322.63;104097;1296;22572;-80
2022/04/29 12:10:23;;;;;;;6.20;4.00;;;;;;;17.73;32.67;101316.67;103999;1297;25293;-81
2022/04/29 12:12:55;;;;;;;4.40;3.60;;;;;;;17.76;33.24;101318.02;103957;1296;25707;-82
2022/04/29 12:15:30;;;;;;;5.60;3.80;;;;;;;17.77;32.74;101315.15;103908;1297;22661;-80
2022/04/29 12:18:02;;;;;;;7.20;3.70;;;;;;;17.65;32.71;101314.52;104195;1294;25563;-82
2022/04/29 12:20:41;;;;;;;4.60;3.50;;;;;;;17.51;32.27;101309.88;103867;1299;22802;-82
2022/04/29 12:23:22;;;;;;;3.90;3.10;;;;;;;17.41;32.63;101308.16;103884;1299;25669;-81